sensor_id;sensor_type;location;lat;lon;timestamp;temperature;humidity
48162;DHT22;33950;48.154;16.316;2024-03-23T00:55:37;13.90;93.50
48162;DHT22;33950;48.154;16.316;2024-03-23T00:58:03;13.90;93.50
48162;DHT22;33950;48.154;16.316;2024-03-23T01:00:29;13.90;93.50
48162;DHT22;33950;48.154;16.316;2024-03-23T01:02:54;14.00;93.50
48162;DHT22;33950;48.154;16.316;2024-03-23T01:05:20;13.80;93.50
48162;DHT22;33950;48.154;16.316;2024-03-23T01:07:46;13.70;93.70
48162;DHT22;33950;48.154;16.316;2024-03-23T01:10:11;13.50;93.90
48162;DHT22;33950;48.154;16.316;2024-03-23T01:12:39;13.40;94.00
48162;DHT22;33950;48.154;16.316;2024-03-23T01:15:04;13.30;94.00
48162;DHT22;33950;48.154;16.316;2024-03-23T01:17:30;13.30;94.10
48162;DHT22;33950;48.154;16.316;2024-03-23T01:19:56;13.30;94.10
48162;DHT22;33950;48.154;16.316;2024-03-23T01:22:21;13.30;94.00
48162;DHT22;33950;48.154;16.316;2024-03-23T01:24:47;13.30;93.90
48162;DHT22;33950;48.154;16.316;2024-03-23T01:27:12;13.20;94.00
48162;DHT22;33950;48.154;16.316;2024-03-23T01:29:39;13.20;94.00
48162;DHT22;33950;48.154;16.316;2024-03-23T01:32:05;13.20;94.30
48162;DHT22;33950;48.154;16.316;2024-03-23T01:34:32;13.30;94.00
48162;DHT22;33950;48.154;16.316;2024-03-23T01:36:57;13.40;94.00
48162;DHT22;33950;48.154;16.316;2024-03-23T01:39:24;13.50;94.00
48162;DHT22;33950;48.154;16.316;2024-03-23T01:41:49;13.50;94.10
48162;DHT22;33950;48.154;16.316;2024-03-23T01:44:15;13.60;94.20
48162;DHT22;33950;48.154;16.316;2024-03-23T01:46:42;13.60;94.30
48162;DHT22;33950;48.154;16.316;2024-03-23T01:49:09;13.60;94.00
48162;DHT22;33950;48.154;16.316;2024-03-23T01:51:35;13.40;94.20
48162;DHT22;33950;48.154;16.316;2024-03-23T01:54:01;13.20;94.50
48162;DHT22;33950;48.154;16.316;2024-03-23T01:56:31;13.10;94.50
48162;DHT22;33950;48.154;16.316;2024-03-23T01:58:58;13.20;94.60
48162;DHT22;33950;48.154;16.316;2024-03-23T02:01:23;13.20;94.40
48162;DHT22;33950;48.154;16.316;2024-03-23T02:03:50;13.30;94.40
48162;DHT22;33950;48.154;16.316;2024-03-23T02:06:16;13.30;94.30
48162;DHT22;33950;48.154;16.316;2024-03-23T02:08:42;13.40;94.20
48162;DHT22;33950;48.154;16.316;2024-03-23T02:11:08;13.30;94.10
48162;DHT22;33950;48.154;16.316;2024-03-23T02:13:33;13.30;94.20
48162;DHT22;33950;48.154;16.316;2024-03-23T02:15:59;13.20;94.30
48162;DHT22;33950;48.154;16.316;2024-03-23T02:18:25;13.20;94.40
48162;DHT22;33950;48.154;16.316;2024-03-23T02:20:51;13.10;94.40
48162;DHT22;33950;48.154;16.316;2024-03-23T02:23:19;13.00;94.60
48162;DHT22;33950;48.154;16.316;2024-03-23T02:25:45;13.00;94.60
48162;DHT22;33950;48.154;16.316;2024-03-23T02:28:11;13.00;94.60
48162;DHT22;33950;48.154;16.316;2024-03-23T02:30:36;13.00;94.60
48162;DHT22;33950;48.154;16.316;2024-03-23T02:33:02;13.00;94.70
48162;DHT22;33950;48.154;16.316;2024-03-23T02:35:28;13.10;94.70
48162;DHT22;33950;48.154;16.316;2024-03-23T02:37:54;13.00;94.70
48162;DHT22;33950;48.154;16.316;2024-03-23T02:40:22;13.00;94.90
48162;DHT22;33950;48.154;16.316;2024-03-23T02:42:48;12.80;95.00
48162;DHT22;33950;48.154;16.316;2024-03-23T02:45:14;12.70;95.10
48162;DHT22;33950;48.154;16.316;2024-03-23T02:47:39;12.60;95.30
48162;DHT22;33950;48.154;16.316;2024-03-23T02:50:05;12.50;95.40
48162;DHT22;33950;48.154;16.316;2024-03-23T02:52:31;12.50;95.50
48162;DHT22;33950;48.154;16.316;2024-03-23T02:54:57;12.50;95.50
48162;DHT22;33950;48.154;16.316;2024-03-23T02:57:24;12.70;95.60
48162;DHT22;33950;48.154;16.316;2024-03-23T02:59:49;12.80;95.50
48162;DHT22;33950;48.154;16.316;2024-03-23T03:02:15;12.90;95.40
48162;DHT22;33950;48.154;16.316;2024-03-23T03:04:41;13.00;95.60
48162;DHT22;33950;48.154;16.316;2024-03-23T03:07:07;13.10;95.60
48162;DHT22;33950;48.154;16.316;2024-03-23T03:09:33;13.00;95.60
48162;DHT22;33950;48.154;16.316;2024-03-23T03:12:00;13.10;95.50
48162;DHT22;33950;48.154;16.316;2024-03-23T03:14:27;13.20;95.40
48162;DHT22;33950;48.154;16.316;2024-03-23T03:16:53;13.20;95.30
48162;DHT22;33950;48.154;16.316;2024-03-23T03:19:19;13.20;95.30
48162;DHT22;33950;48.154;16.316;2024-03-23T03:21:44;13.30;95.20
48162;DHT22;33950;48.154;16.316;2024-03-23T03:24:10;13.40;95.10
48162;DHT22;33950;48.154;16.316;2024-03-23T03:26:36;13.40;95.00
48162;DHT22;33950;48.154;16.316;2024-03-23T03:29:02;13.40;95.00
48162;DHT22;33950;48.154;16.316;2024-03-23T03:31:29;13.40;95.10
48162;DHT22;33950;48.154;16.316;2024-03-23T03:33:55;13.30;95.00
48162;DHT22;33950;48.154;16.316;2024-03-23T03:36:20;13.30;95.00
48162;DHT22;33950;48.154;16.316;2024-03-23T03:38:46;13.40;95.10
48162;DHT22;33950;48.154;16.316;2024-03-23T03:41:11;13.20;94.90
48162;DHT22;33950;48.154;16.316;2024-03-23T03:43:37;13.00;95.00
48162;DHT22;33950;48.154;16.316;2024-03-23T03:46:03;13.00;95.30
48162;DHT22;33950;48.154;16.316;2024-03-23T03:48:30;12.90;95.40
48162;DHT22;33950;48.154;16.316;2024-03-23T03:50:56;12.70;95.40
48162;DHT22;33950;48.154;16.316;2024-03-23T03:53:22;12.70;95.60
48162;DHT22;33950;48.154;16.316;2024-03-23T03:55:47;12.70;95.70
48162;DHT22;33950;48.154;16.316;2024-03-23T03:58:13;12.70;95.70
48162;DHT22;33950;48.154;16.316;2024-03-23T04:00:38;12.80;95.60
48162;DHT22;33950;48.154;16.316;2024-03-23T04:03:04;12.80;95.50
48162;DHT22;33950;48.154;16.316;2024-03-23T04:05:31;12.70;95.40
48162;DHT22;33950;48.154;16.316;2024-03-23T04:07:57;12.60;95.60
48162;DHT22;33950;48.154;16.316;2024-03-23T04:10:22;12.60;95.70
48162;DHT22;33950;48.154;16.316;2024-03-23T04:12:48;12.60;95.60
48162;DHT22;33950;48.154;16.316;2024-03-23T04:15:14;12.70;95.60
48162;DHT22;33950;48.154;16.316;2024-03-23T04:17:39;12.80;95.50
48162;DHT22;33950;48.154;16.316;2024-03-23T04:20:08;12.80;95.60
48162;DHT22;33950;48.154;16.316;2024-03-23T04:22:36;12.90;95.70
48162;DHT22;33950;48.154;16.316;2024-03-23T04:25:01;12.90;95.70
48162;DHT22;33950;48.154;16.316;2024-03-23T04:27:32;12.90;95.50
48162;DHT22;33950;48.154;16.316;2024-03-23T04:29:57;12.80;95.80
48162;DHT22;33950;48.154;16.316;2024-03-23T04:32:23;12.80;96.00
48162;DHT22;33950;48.154;16.316;2024-03-23T04:34:48;12.90;96.10
48162;DHT22;33950;48.154;16.316;2024-03-23T04:37:14;12.90;95.90
48162;DHT22;33950;48.154;16.316;2024-03-23T04:39:41;12.90;95.90
48162;DHT22;33950;48.154;16.316;2024-03-23T04:42:07;13.00;95.90
48162;DHT22;33950;48.154;16.316;2024-03-23T04:44:32;13.00;95.80
48162;DHT22;33950;48.154;16.316;2024-03-23T04:46:58;13.00;95.70
48162;DHT22;33950;48.154;16.316;2024-03-23T04:49:23;12.90;95.90
48162;DHT22;33950;48.154;16.316;2024-03-23T04:51:49;12.90;96.00
48162;DHT22;33950;48.154;16.316;2024-03-23T04:54:15;12.90;96.00
48162;DHT22;33950;48.154;16.316;2024-03-23T04:56:42;12.90;96.10
48162;DHT22;33950;48.154;16.316;2024-03-23T04:59:08;13.00;96.20
48162;DHT22;33950;48.154;16.316;2024-03-23T05:01:34;13.00;96.20
48162;DHT22;33950;48.154;16.316;2024-03-23T05:04:00;12.90;96.20
48162;DHT22;33950;48.154;16.316;2024-03-23T05:06:25;12.90;96.20
48162;DHT22;33950;48.154;16.316;2024-03-23T05:08:51;13.00;96.30
48162;DHT22;33950;48.154;16.316;2024-03-23T05:11:17;13.00;96.20
48162;DHT22;33950;48.154;16.316;2024-03-23T05:13:44;13.00;96.10
48162;DHT22;33950;48.154;16.316;2024-03-23T05:16:09;13.00;96.00
48162;DHT22;33950;48.154;16.316;2024-03-23T05:18:35;13.00;96.10
48162;DHT22;33950;48.154;16.316;2024-03-23T05:21:01;13.00;96.20
48162;DHT22;33950;48.154;16.316;2024-03-23T05:23:27;13.10;96.30
48162;DHT22;33950;48.154;16.316;2024-03-23T05:25:53;13.10;96.30
48162;DHT22;33950;48.154;16.316;2024-03-23T05:28:20;13.10;96.40
48162;DHT22;33950;48.154;16.316;2024-03-23T05:30:51;13.00;96.50
48162;DHT22;33950;48.154;16.316;2024-03-23T05:33:17;13.10;96.40
48162;DHT22;33950;48.154;16.316;2024-03-23T05:35:43;13.00;96.20
48162;DHT22;33950;48.154;16.316;2024-03-23T05:38:08;13.00;96.50
48162;DHT22;33950;48.154;16.316;2024-03-23T05:40:34;13.00;96.40
48162;DHT22;33950;48.154;16.316;2024-03-23T05:43:02;13.10;96.40
48162;DHT22;33950;48.154;16.316;2024-03-23T05:45:28;13.20;96.50
48162;DHT22;33950;48.154;16.316;2024-03-23T05:47:55;13.20;96.50
48162;DHT22;33950;48.154;16.316;2024-03-23T05:50:22;13.30;96.70
48162;DHT22;33950;48.154;16.316;2024-03-23T05:52:48;13.30;96.70
48162;DHT22;33950;48.154;16.316;2024-03-23T05:55:14;13.30;96.70
48162;DHT22;33950;48.154;16.316;2024-03-23T05:57:39;13.30;96.60
48162;DHT22;33950;48.154;16.316;2024-03-23T06:00:06;13.30;96.60
48162;DHT22;33950;48.154;16.316;2024-03-23T06:02:35;13.40;96.70
48162;DHT22;33950;48.154;16.316;2024-03-23T06:05:02;13.30;96.50
48162;DHT22;33950;48.154;16.316;2024-03-23T06:07:28;13.20;96.60
48162;DHT22;33950;48.154;16.316;2024-03-23T06:09:54;13.20;96.70
48162;DHT22;33950;48.154;16.316;2024-03-23T06:12:19;13.20;96.70
48162;DHT22;33950;48.154;16.316;2024-03-23T06:14:46;13.30;96.80
48162;DHT22;33950;48.154;16.316;2024-03-23T06:17:13;13.30;96.80
48162;DHT22;33950;48.154;16.316;2024-03-23T06:19:39;13.30;96.70
48162;DHT22;33950;48.154;16.316;2024-03-23T06:22:06;13.40;96.80
48162;DHT22;33950;48.154;16.316;2024-03-23T06:24:32;13.40;96.70
48162;DHT22;33950;48.154;16.316;2024-03-23T06:26:57;13.40;96.50
48162;DHT22;33950;48.154;16.316;2024-03-23T06:29:23;13.40;96.20
48162;DHT22;33950;48.154;16.316;2024-03-23T06:31:52;13.40;96.20
48162;DHT22;33950;48.154;16.316;2024-03-23T06:34:18;13.30;96.10
48162;DHT22;33950;48.154;16.316;2024-03-23T06:36:44;13.30;96.10
48162;DHT22;33950;48.154;16.316;2024-03-23T06:39:11;13.30;96.20
48162;DHT22;33950;48.154;16.316;2024-03-23T06:41:40;13.30;96.30
48162;DHT22;33950;48.154;16.316;2024-03-23T06:44:06;13.30;96.40
48162;DHT22;33950;48.154;16.316;2024-03-23T06:46:31;13.40;96.40
48162;DHT22;33950;48.154;16.316;2024-03-23T06:48:57;13.50;96.40
48162;DHT22;33950;48.154;16.316;2024-03-23T06:51:23;13.60;96.50
48162;DHT22;33950;48.154;16.316;2024-03-23T06:53:49;13.60;96.50
48162;DHT22;33950;48.154;16.316;2024-03-23T06:56:16;13.60;96.50
48162;DHT22;33950;48.154;16.316;2024-03-23T06:58:41;13.70;96.50
48162;DHT22;33950;48.154;16.316;2024-03-23T07:01:07;13.70;96.50
48162;DHT22;33950;48.154;16.316;2024-03-23T07:03:33;13.70;96.60
48162;DHT22;33950;48.154;16.316;2024-03-23T07:05:58;13.70;96.50
48162;DHT22;33950;48.154;16.316;2024-03-23T07:08:24;13.70;96.30
48162;DHT22;33950;48.154;16.316;2024-03-23T07:10:50;13.80;96.10
48162;DHT22;33950;48.154;16.316;2024-03-23T07:13:17;13.80;96.00
48162;DHT22;33950;48.154;16.316;2024-03-23T07:15:42;13.90;95.90
48162;DHT22;33950;48.154;16.316;2024-03-23T07:18:08;13.90;95.80
48162;DHT22;33950;48.154;16.316;2024-03-23T07:20:34;14.00;95.70
48162;DHT22;33950;48.154;16.316;2024-03-23T07:22:59;14.00;95.50
48162;DHT22;33950;48.154;16.316;2024-03-23T07:25:25;13.90;95.50
48162;DHT22;33950;48.154;16.316;2024-03-23T07:27:52;13.90;95.40
48162;DHT22;33950;48.154;16.316;2024-03-23T07:30:19;14.00;95.40
48162;DHT22;33950;48.154;16.316;2024-03-23T07:32:45;14.00;95.20
48162;DHT22;33950;48.154;16.316;2024-03-23T07:35:11;14.00;95.30
48162;DHT22;33950;48.154;16.316;2024-03-23T07:37:36;14.10;95.20
48162;DHT22;33950;48.154;16.316;2024-03-23T07:40:02;14.10;95.10
48162;DHT22;33950;48.154;16.316;2024-03-23T07:42:28;14.10;95.20
48162;DHT22;33950;48.154;16.316;2024-03-23T07:44:54;14.00;95.30
48162;DHT22;33950;48.154;16.316;2024-03-23T07:47:23;14.00;95.30
48162;DHT22;33950;48.154;16.316;2024-03-23T07:49:49;13.90;95.00
48162;DHT22;33950;48.154;16.316;2024-03-23T07:52:14;13.90;95.10
48162;DHT22;33950;48.154;16.316;2024-03-23T07:54:40;13.80;95.20
48162;DHT22;33950;48.154;16.316;2024-03-23T07:57:06;13.80;95.40
48162;DHT22;33950;48.154;16.316;2024-03-23T07:59:31;13.80;95.40
48162;DHT22;33950;48.154;16.316;2024-03-23T08:01:59;13.90;95.60
48162;DHT22;33950;48.154;16.316;2024-03-23T08:04:26;13.80;95.60
48162;DHT22;33950;48.154;16.316;2024-03-23T08:06:52;13.80;95.50
48162;DHT22;33950;48.154;16.316;2024-03-23T08:09:17;13.90;95.50
48162;DHT22;33950;48.154;16.316;2024-03-23T08:11:44;13.90;95.70
48162;DHT22;33950;48.154;16.316;2024-03-23T08:14:12;13.90;95.80
48162;DHT22;33950;48.154;16.316;2024-03-23T08:16:37;14.00;95.70
48162;DHT22;33950;48.154;16.316;2024-03-23T08:19:03;14.00;95.60
48162;DHT22;33950;48.154;16.316;2024-03-23T08:21:30;14.00;95.50
48162;DHT22;33950;48.154;16.316;2024-03-23T08:23:56;14.00;95.60
48162;DHT22;33950;48.154;16.316;2024-03-23T08:26:21;14.00;95.50
48162;DHT22;33950;48.154;16.316;2024-03-23T08:28:47;14.10;95.40
48162;DHT22;33950;48.154;16.316;2024-03-23T08:31:13;14.10;95.20
48162;DHT22;33950;48.154;16.316;2024-03-23T08:33:40;14.10;95.10
48162;DHT22;33950;48.154;16.316;2024-03-23T08:36:08;14.10;94.80
48162;DHT22;33950;48.154;16.316;2024-03-23T08:38:35;14.20;94.70
48162;DHT22;33950;48.154;16.316;2024-03-23T08:41:01;14.20;94.80
48162;DHT22;33950;48.154;16.316;2024-03-23T08:43:30;14.20;94.80
48162;DHT22;33950;48.154;16.316;2024-03-23T08:46:03;14.20;94.80
48162;DHT22;33950;48.154;16.316;2024-03-23T08:48:28;14.20;94.80
48162;DHT22;33950;48.154;16.316;2024-03-23T08:50:58;14.30;94.90
48162;DHT22;33950;48.154;16.316;2024-03-23T08:53:24;14.40;94.80
48162;DHT22;33950;48.154;16.316;2024-03-23T08:55:54;14.50;94.80
48162;DHT22;33950;48.154;16.316;2024-03-23T08:58:19;14.60;94.50
48162;DHT22;33950;48.154;16.316;2024-03-23T09:00:46;14.70;94.60
48162;DHT22;33950;48.154;16.316;2024-03-23T09:03:12;14.70;94.60
48162;DHT22;33950;48.154;16.316;2024-03-23T09:05:38;14.80;94.60
48162;DHT22;33950;48.154;16.316;2024-03-23T09:08:04;14.90;94.50
48162;DHT22;33950;48.154;16.316;2024-03-23T09:10:30;14.90;94.60
48162;DHT22;33950;48.154;16.316;2024-03-23T09:12:57;15.00;94.40
48162;DHT22;33950;48.154;16.316;2024-03-23T09:15:23;15.20;94.10
48162;DHT22;33950;48.154;16.316;2024-03-23T09:17:49;15.30;94.00
48162;DHT22;33950;48.154;16.316;2024-03-23T09:20:14;15.40;93.80
48162;DHT22;33950;48.154;16.316;2024-03-23T09:22:40;15.50;93.30
48162;DHT22;33950;48.154;16.316;2024-03-23T09:25:06;15.60;93.10
48162;DHT22;33950;48.154;16.316;2024-03-23T09:27:32;15.70;93.30
48162;DHT22;33950;48.154;16.316;2024-03-23T09:29:59;15.80;93.20
48162;DHT22;33950;48.154;16.316;2024-03-23T09:32:25;15.80;93.20
48162;DHT22;33950;48.154;16.316;2024-03-23T09:34:51;15.90;93.00
48162;DHT22;33950;48.154;16.316;2024-03-23T09:37:16;15.90;92.70
48162;DHT22;33950;48.154;16.316;2024-03-23T09:39:42;16.10;92.90
48162;DHT22;33950;48.154;16.316;2024-03-23T09:42:08;16.20;93.00
48162;DHT22;33950;48.154;16.316;2024-03-23T09:44:35;16.30;92.80
48162;DHT22;33950;48.154;16.316;2024-03-23T09:47:02;16.50;92.90
48162;DHT22;33950;48.154;16.316;2024-03-23T09:49:28;16.60;92.90
48162;DHT22;33950;48.154;16.316;2024-03-23T09:51:54;16.80;92.60
48162;DHT22;33950;48.154;16.316;2024-03-23T09:54:21;17.00;91.80
48162;DHT22;33950;48.154;16.316;2024-03-23T09:56:47;17.20;90.70
48162;DHT22;33950;48.154;16.316;2024-03-23T09:59:13;17.30;90.40
48162;DHT22;33950;48.154;16.316;2024-03-23T10:01:38;17.50;90.50
48162;DHT22;33950;48.154;16.316;2024-03-23T10:04:06;17.70;90.50
48162;DHT22;33950;48.154;16.316;2024-03-23T10:06:32;17.80;90.90
48162;DHT22;33950;48.154;16.316;2024-03-23T10:08:57;18.00;90.90
48162;DHT22;33950;48.154;16.316;2024-03-23T10:11:23;18.10;90.60
48162;DHT22;33950;48.154;16.316;2024-03-23T10:13:50;18.30;90.30
48162;DHT22;33950;48.154;16.316;2024-03-23T10:16:21;18.40;90.00
48162;DHT22;33950;48.154;16.316;2024-03-23T10:18:47;18.50;90.30
48162;DHT22;33950;48.154;16.316;2024-03-23T10:21:14;18.70;89.90
48162;DHT22;33950;48.154;16.316;2024-03-23T10:23:40;18.70;88.60
48162;DHT22;33950;48.154;16.316;2024-03-23T10:26:13;18.70;88.90
48162;DHT22;33950;48.154;16.316;2024-03-23T10:28:50;18.70;87.90
48162;DHT22;33950;48.154;16.316;2024-03-23T10:31:15;18.80;88.10
48162;DHT22;33950;48.154;16.316;2024-03-23T10:33:44;18.80;88.10
48162;DHT22;33950;48.154;16.316;2024-03-23T10:36:09;18.90;87.60
48162;DHT22;33950;48.154;16.316;2024-03-23T10:38:37;18.80;87.30
48162;DHT22;33950;48.154;16.316;2024-03-23T10:41:03;18.90;87.80
48162;DHT22;33950;48.154;16.316;2024-03-23T10:43:29;19.30;86.60
48162;DHT22;33950;48.154;16.316;2024-03-23T10:45:56;20.00;85.20
48162;DHT22;33950;48.154;16.316;2024-03-23T10:48:21;20.60;83.60
48162;DHT22;33950;48.154;16.316;2024-03-23T10:50:47;21.30;83.30
48162;DHT22;33950;48.154;16.316;2024-03-23T10:53:13;21.60;81.60
48162;DHT22;33950;48.154;16.316;2024-03-23T10:55:40;21.80;80.30
48162;DHT22;33950;48.154;16.316;2024-03-23T10:58:06;22.40;77.70
48162;DHT22;33950;48.154;16.316;2024-03-23T11:00:32;22.70;75.00
48162;DHT22;33950;48.154;16.316;2024-03-23T11:02:58;22.60;71.90
48162;DHT22;33950;48.154;16.316;2024-03-23T11:05:28;22.50;73.30
48162;DHT22;33950;48.154;16.316;2024-03-23T11:07:53;22.80;73.10
48162;DHT22;33950;48.154;16.316;2024-03-23T11:10:24;22.90;71.30
48162;DHT22;33950;48.154;16.316;2024-03-23T11:12:51;22.60;71.80
48162;DHT22;33950;48.154;16.316;2024-03-23T11:15:18;22.90;72.10
48162;DHT22;33950;48.154;16.316;2024-03-23T11:17:46;23.00;71.30
48162;DHT22;33950;48.154;16.316;2024-03-23T11:20:31;22.40;71.20
48162;DHT22;33950;48.154;16.316;2024-03-23T11:22:57;22.20;70.90
48162;DHT22;33950;48.154;16.316;2024-03-23T11:25:23;22.20;71.20
48162;DHT22;33950;48.154;16.316;2024-03-23T11:27:49;21.70;71.60
48162;DHT22;33950;48.154;16.316;2024-03-23T11:30:20;21.30;72.10
48162;DHT22;33950;48.154;16.316;2024-03-23T11:32:47;21.00;72.40
48162;DHT22;33950;48.154;16.316;2024-03-23T11:35:29;20.90;72.80
48162;DHT22;33950;48.154;16.316;2024-03-23T11:38:03;20.80;73.50
48162;DHT22;33950;48.154;16.316;2024-03-23T11:40:29;20.60;73.60
48162;DHT22;33950;48.154;16.316;2024-03-23T11:42:55;20.50;73.90
48162;DHT22;33950;48.154;16.316;2024-03-23T11:45:22;20.40;74.60
48162;DHT22;33950;48.154;16.316;2024-03-23T11:47:48;20.30;74.80
48162;DHT22;33950;48.154;16.316;2024-03-23T11:50:19;20.20;75.00
48162;DHT22;33950;48.154;16.316;2024-03-23T11:52:44;20.20;75.20
48162;DHT22;33950;48.154;16.316;2024-03-23T11:55:10;20.10;75.10
48162;DHT22;33950;48.154;16.316;2024-03-23T11:57:36;20.00;75.00
48162;DHT22;33950;48.154;16.316;2024-03-23T12:00:02;19.90;75.70
48162;DHT22;33950;48.154;16.316;2024-03-23T12:02:29;19.90;75.90
48162;DHT22;33950;48.154;16.316;2024-03-23T12:04:54;19.90;76.20
48162;DHT22;33950;48.154;16.316;2024-03-23T12:07:20;19.90;76.10
48162;DHT22;33950;48.154;16.316;2024-03-23T12:09:46;19.90;75.80
48162;DHT22;33950;48.154;16.316;2024-03-23T12:12:13;19.90;75.80
48162;DHT22;33950;48.154;16.316;2024-03-23T12:14:40;19.80;75.50
48162;DHT22;33950;48.154;16.316;2024-03-23T12:17:07;19.80;76.00
48162;DHT22;33950;48.154;16.316;2024-03-23T12:19:34;19.80;76.30
48162;DHT22;33950;48.154;16.316;2024-03-23T12:22:00;19.80;76.50
48162;DHT22;33950;48.154;16.316;2024-03-23T12:24:26;19.90;76.00
48162;DHT22;33950;48.154;16.316;2024-03-23T12:26:52;19.80;75.90
48162;DHT22;33950;48.154;16.316;2024-03-23T12:29:17;19.80;76.30
48162;DHT22;33950;48.154;16.316;2024-03-23T12:31:44;19.80;76.00
48162;DHT22;33950;48.154;16.316;2024-03-23T12:34:09;19.70;75.60
48162;DHT22;33950;48.154;16.316;2024-03-23T12:36:36;19.70;75.80
48162;DHT22;33950;48.154;16.316;2024-03-23T12:39:02;19.70;76.30
48162;DHT22;33950;48.154;16.316;2024-03-23T12:41:28;19.70;76.30
48162;DHT22;33950;48.154;16.316;2024-03-23T12:43:53;19.60;76.30
48162;DHT22;33950;48.154;16.316;2024-03-23T12:46:19;19.50;77.10
48162;DHT22;33950;48.154;16.316;2024-03-23T12:48:44;19.50;77.70
48162;DHT22;33950;48.154;16.316;2024-03-23T12:51:10;19.50;78.00
48162;DHT22;33950;48.154;16.316;2024-03-23T12:53:37;19.10;81.10
48162;DHT22;33950;48.154;16.316;2024-03-23T12:56:03;18.40;84.50
48162;DHT22;33950;48.154;16.316;2024-03-23T12:58:28;17.60;87.90
48162;DHT22;33950;48.154;16.316;2024-03-23T13:00:54;16.80;90.20
48162;DHT22;33950;48.154;16.316;2024-03-23T13:03:19;16.50;90.50
48162;DHT22;33950;48.154;16.316;2024-03-23T13:05:51;16.20;90.40
48162;DHT22;33950;48.154;16.316;2024-03-23T13:08:17;16.00;90.60
48162;DHT22;33950;48.154;16.316;2024-03-23T13:10:43;15.80;90.50
48162;DHT22;33950;48.154;16.316;2024-03-23T13:13:10;15.50;90.60
48162;DHT22;33950;48.154;16.316;2024-03-23T13:15:35;15.20;91.10
48162;DHT22;33950;48.154;16.316;2024-03-23T13:18:01;14.90;91.50
48162;DHT22;33950;48.154;16.316;2024-03-23T13:20:27;14.70;91.80
48162;DHT22;33950;48.154;16.316;2024-03-23T13:22:53;14.50;92.10
48162;DHT22;33950;48.154;16.316;2024-03-23T13:25:19;14.30;92.30
48162;DHT22;33950;48.154;16.316;2024-03-23T13:27:46;14.10;92.80
48162;DHT22;33950;48.154;16.316;2024-03-23T13:30:12;14.00;93.10
48162;DHT22;33950;48.154;16.316;2024-03-23T13:32:38;14.00;93.00
48162;DHT22;33950;48.154;16.316;2024-03-23T13:35:03;13.90;93.10
48162;DHT22;33950;48.154;16.316;2024-03-23T13:37:29;13.70;93.50
48162;DHT22;33950;48.154;16.316;2024-03-23T13:39:55;13.50;93.60
48162;DHT22;33950;48.154;16.316;2024-03-23T13:42:20;13.30;93.90
48162;DHT22;33950;48.154;16.316;2024-03-23T13:44:47;13.20;94.30
48162;DHT22;33950;48.154;16.316;2024-03-23T13:47:13;13.10;95.00
48162;DHT22;33950;48.154;16.316;2024-03-23T13:49:39;12.90;95.40
48162;DHT22;33950;48.154;16.316;2024-03-23T13:52:05;12.80;96.20
48162;DHT22;33950;48.154;16.316;2024-03-23T13:54:32;12.20;97.50
48162;DHT22;33950;48.154;16.316;2024-03-23T13:56:58;11.80;99.10
48162;DHT22;33950;48.154;16.316;2024-03-23T13:59:23;11.50;99.90
48162;DHT22;33950;48.154;16.316;2024-03-23T14:01:50;11.20;99.90
48162;DHT22;33950;48.154;16.316;2024-03-23T14:04:16;11.10;99.60
48162;DHT22;33950;48.154;16.316;2024-03-23T14:06:42;11.10;99.00
48162;DHT22;33950;48.154;16.316;2024-03-23T14:09:07;11.10;99.00
48162;DHT22;33950;48.154;16.316;2024-03-23T14:11:36;11.10;99.60
48162;DHT22;33950;48.154;16.316;2024-03-23T14:14:02;11.00;99.60
48162;DHT22;33950;48.154;16.316;2024-03-23T14:16:28;11.00;99.80
48162;DHT22;33950;48.154;16.316;2024-03-23T14:18:55;10.90;99.90
48162;DHT22;33950;48.154;16.316;2024-03-23T14:21:21;10.70;99.90
48162;DHT22;33950;48.154;16.316;2024-03-23T14:23:47;10.50;99.90
48162;DHT22;33950;48.154;16.316;2024-03-23T14:26:12;10.30;99.90
48162;DHT22;33950;48.154;16.316;2024-03-23T14:28:40;10.10;99.90
48162;DHT22;33950;48.154;16.316;2024-03-23T14:31:06;10.00;99.90
48162;DHT22;33950;48.154;16.316;2024-03-23T14:33:36;10.00;99.90
48162;DHT22;33950;48.154;16.316;2024-03-23T14:36:04;9.90;99.90
48162;DHT22;33950;48.154;16.316;2024-03-23T14:38:30;9.80;99.90
48162;DHT22;33950;48.154;16.316;2024-03-23T14:40:57;9.80;99.70
48162;DHT22;33950;48.154;16.316;2024-03-23T14:43:23;9.70;99.90
48162;DHT22;33950;48.154;16.316;2024-03-23T14:48:29;9.70;99.90
48162;DHT22;33950;48.154;16.316;2024-03-23T14:50:55;9.90;99.90
48162;DHT22;33950;48.154;16.316;2024-03-23T14:53:22;9.90;99.90
48162;DHT22;33950;48.154;16.316;2024-03-23T14:55:48;9.90;99.60
48162;DHT22;33950;48.154;16.316;2024-03-23T14:58:14;9.70;99.90
48162;DHT22;33950;48.154;16.316;2024-03-23T15:00:40;9.50;99.90
48162;DHT22;33950;48.154;16.316;2024-03-23T15:03:06;9.40;99.90
48162;DHT22;33950;48.154;16.316;2024-03-23T15:05:31;9.40;99.90
48162;DHT22;33950;48.154;16.316;2024-03-23T15:07:57;9.20;99.90
48162;DHT22;33950;48.154;16.316;2024-03-23T15:10:25;9.10;99.90
48162;DHT22;33950;48.154;16.316;2024-03-23T15:12:51;9.00;99.90
48162;DHT22;33950;48.154;16.316;2024-03-23T15:15:16;8.90;99.90
48162;DHT22;33950;48.154;16.316;2024-03-23T15:17:42;8.80;99.90
48162;DHT22;33950;48.154;16.316;2024-03-23T15:20:10;8.70;99.90
48162;DHT22;33950;48.154;16.316;2024-03-23T15:22:37;8.70;99.90
48162;DHT22;33950;48.154;16.316;2024-03-23T15:25:02;8.50;99.90
48162;DHT22;33950;48.154;16.316;2024-03-23T15:27:29;8.30;99.90
48162;DHT22;33950;48.154;16.316;2024-03-23T15:29:55;8.10;99.90
48162;DHT22;33950;48.154;16.316;2024-03-23T15:32:22;8.10;99.90
48162;DHT22;33950;48.154;16.316;2024-03-23T15:34:47;8.00;99.90
48162;DHT22;33950;48.154;16.316;2024-03-23T15:37:13;8.00;99.90
48162;DHT22;33950;48.154;16.316;2024-03-23T15:39:39;7.90;99.90
48162;DHT22;33950;48.154;16.316;2024-03-23T15:42:06;7.80;99.90
48162;DHT22;33950;48.154;16.316;2024-03-23T15:44:33;7.70;99.90
48162;DHT22;33950;48.154;16.316;2024-03-23T15:46:59;7.60;99.90
48162;DHT22;33950;48.154;16.316;2024-03-23T15:49:24;7.60;99.90
48162;DHT22;33950;48.154;16.316;2024-03-23T15:51:50;7.60;99.90
48162;DHT22;33950;48.154;16.316;2024-03-23T15:54:16;7.60;99.90
48162;DHT22;33950;48.154;16.316;2024-03-23T15:56:41;7.70;99.90
48162;DHT22;33950;48.154;16.316;2024-03-23T15:59:07;7.70;99.90
48162;DHT22;33950;48.154;16.316;2024-03-23T16:01:34;7.80;99.90
48162;DHT22;33950;48.154;16.316;2024-03-23T16:04:00;7.80;99.90
48162;DHT22;33950;48.154;16.316;2024-03-23T16:06:26;7.90;99.90
48162;DHT22;33950;48.154;16.316;2024-03-23T16:08:51;8.00;99.90